sensor_id;sensor_type;location;lat;lon;timestamp;temperature;humidity
52743;DHT22;55583;53.012;6.556;2023-04-25T00:01:36;6.70;99.90
52743;DHT22;55583;53.012;6.556;2023-04-25T00:04:03;6.70;99.90
52743;DHT22;55583;53.012;6.556;2023-04-25T00:06:34;6.70;99.90
52743;DHT22;55583;53.012;6.556;2023-04-25T00:09:02;6.70;99.90
52743;DHT22;55583;53.012;6.556;2023-04-25T00:11:28;6.70;99.90
52743;DHT22;55583;53.012;6.556;2023-04-25T00:13:56;6.70;99.90
52743;DHT22;55583;53.012;6.556;2023-04-25T00:16:22;6.70;99.90
52743;DHT22;55583;53.012;6.556;2023-04-25T00:18:49;6.70;99.90
52743;DHT22;55583;53.012;6.556;2023-04-25T00:21:18;6.70;99.90
52743;DHT22;55583;53.012;6.556;2023-04-25T00:23:45;6.70;99.90
52743;DHT22;55583;53.012;6.556;2023-04-25T00:26:11;6.70;99.90
52743;DHT22;55583;53.012;6.556;2023-04-25T00:28:37;6.70;99.90
52743;DHT22;55583;53.012;6.556;2023-04-25T00:31:03;6.70;99.90
52743;DHT22;55583;53.012;6.556;2023-04-25T00:33:29;6.70;99.90
52743;DHT22;55583;53.012;6.556;2023-04-25T00:35:55;6.70;99.90
52743;DHT22;55583;53.012;6.556;2023-04-25T00:38:21;6.60;99.90
52743;DHT22;55583;53.012;6.556;2023-04-25T00:40:47;6.60;99.90
52743;DHT22;55583;53.012;6.556;2023-04-25T00:43:13;6.50;99.90
52743;DHT22;55583;53.012;6.556;2023-04-25T00:45:39;6.50;99.90
52743;DHT22;55583;53.012;6.556;2023-04-25T00:48:05;6.50;99.90
52743;DHT22;55583;53.012;6.556;2023-04-25T00:50:32;6.40;99.90
52743;DHT22;55583;53.012;6.556;2023-04-25T00:52:58;6.40;99.90
52743;DHT22;55583;53.012;6.556;2023-04-25T00:55:24;6.30;99.90
52743;DHT22;55583;53.012;6.556;2023-04-25T00:57:50;6.30;99.90
52743;DHT22;55583;53.012;6.556;2023-04-25T01:00:16;6.30;99.90
52743;DHT22;55583;53.012;6.556;2023-04-25T01:02:43;6.30;99.90
52743;DHT22;55583;53.012;6.556;2023-04-25T01:05:10;6.30;99.90
52743;DHT22;55583;53.012;6.556;2023-04-25T01:07:36;6.20;99.90
52743;DHT22;55583;53.012;6.556;2023-04-25T01:10:02;6.20;99.90
52743;DHT22;55583;53.012;6.556;2023-04-25T01:12:28;6.20;99.90
52743;DHT22;55583;53.012;6.556;2023-04-25T01:14:54;6.10;99.90
52743;DHT22;55583;53.012;6.556;2023-04-25T01:17:20;6.00;99.90
52743;DHT22;55583;53.012;6.556;2023-04-25T01:19:46;6.00;99.90
52743;DHT22;55583;53.012;6.556;2023-04-25T01:22:14;5.90;99.90
52743;DHT22;55583;53.012;6.556;2023-04-25T01:24:40;5.80;99.90
52743;DHT22;55583;53.012;6.556;2023-04-25T01:27:06;5.70;99.90
52743;DHT22;55583;53.012;6.556;2023-04-25T01:29:32;5.70;99.90
52743;DHT22;55583;53.012;6.556;2023-04-25T01:31:59;5.80;99.90
52743;DHT22;55583;53.012;6.556;2023-04-25T01:34:25;5.70;99.90
52743;DHT22;55583;53.012;6.556;2023-04-25T01:36:51;5.70;99.90
52743;DHT22;55583;53.012;6.556;2023-04-25T01:39:17;5.70;99.90
52743;DHT22;55583;53.012;6.556;2023-04-25T01:41:43;5.70;99.90
52743;DHT22;55583;53.012;6.556;2023-04-25T01:44:09;5.70;99.90
52743;DHT22;55583;53.012;6.556;2023-04-25T01:46:35;5.80;99.90
52743;DHT22;55583;53.012;6.556;2023-04-25T01:49:01;5.80;99.90
52743;DHT22;55583;53.012;6.556;2023-04-25T01:51:27;5.80;99.90
52743;DHT22;55583;53.012;6.556;2023-04-25T01:53:53;5.90;99.90
52743;DHT22;55583;53.012;6.556;2023-04-25T01:56:19;6.20;99.90
52743;DHT22;55583;53.012;6.556;2023-04-25T01:58:45;5.90;99.90
52743;DHT22;55583;53.012;6.556;2023-04-25T02:01:11;5.90;99.90
52743;DHT22;55583;53.012;6.556;2023-04-25T02:03:37;5.90;99.90
52743;DHT22;55583;53.012;6.556;2023-04-25T02:06:02;5.90;99.90
52743;DHT22;55583;53.012;6.556;2023-04-25T02:08:28;5.90;99.90
52743;DHT22;55583;53.012;6.556;2023-04-25T02:10:54;5.90;99.90
52743;DHT22;55583;53.012;6.556;2023-04-25T02:13:19;5.90;99.90
52743;DHT22;55583;53.012;6.556;2023-04-25T02:15:45;5.90;99.90
52743;DHT22;55583;53.012;6.556;2023-04-25T02:18:10;5.90;99.90
52743;DHT22;55583;53.012;6.556;2023-04-25T02:20:36;5.90;99.90
52743;DHT22;55583;53.012;6.556;2023-04-25T02:23:02;5.80;99.90
52743;DHT22;55583;53.012;6.556;2023-04-25T02:25:28;5.90;99.90
52743;DHT22;55583;53.012;6.556;2023-04-25T02:27:54;5.80;99.90
52743;DHT22;55583;53.012;6.556;2023-04-25T02:30:20;5.90;99.90
52743;DHT22;55583;53.012;6.556;2023-04-25T02:32:46;5.80;99.90
52743;DHT22;55583;53.012;6.556;2023-04-25T02:35:11;5.90;99.90
52743;DHT22;55583;53.012;6.556;2023-04-25T02:37:38;5.80;99.90
52743;DHT22;55583;53.012;6.556;2023-04-25T02:40:04;5.80;99.90
52743;DHT22;55583;53.012;6.556;2023-04-25T02:42:30;5.80;99.90
52743;DHT22;55583;53.012;6.556;2023-04-25T02:44:56;5.80;99.90
52743;DHT22;55583;53.012;6.556;2023-04-25T02:47:21;5.80;99.90
52743;DHT22;55583;53.012;6.556;2023-04-25T02:49:47;5.80;99.90
52743;DHT22;55583;53.012;6.556;2023-04-25T02:52:13;5.80;99.90
52743;DHT22;55583;53.012;6.556;2023-04-25T02:54:40;5.80;99.90
52743;DHT22;55583;53.012;6.556;2023-04-25T02:57:06;5.80;99.90
52743;DHT22;55583;53.012;6.556;2023-04-25T02:59:31;5.80;99.90
52743;DHT22;55583;53.012;6.556;2023-04-25T03:01:57;6.00;99.90
52743;DHT22;55583;53.012;6.556;2023-04-25T03:04:23;5.80;99.90
52743;DHT22;55583;53.012;6.556;2023-04-25T03:06:52;5.80;99.90
52743;DHT22;55583;53.012;6.556;2023-04-25T03:09:18;5.80;99.90
52743;DHT22;55583;53.012;6.556;2023-04-25T03:11:45;5.80;99.90
52743;DHT22;55583;53.012;6.556;2023-04-25T03:14:11;5.80;99.90
52743;DHT22;55583;53.012;6.556;2023-04-25T03:16:37;5.80;99.90
52743;DHT22;55583;53.012;6.556;2023-04-25T03:19:03;5.80;99.90
52743;DHT22;55583;53.012;6.556;2023-04-25T03:21:30;5.80;99.90
52743;DHT22;55583;53.012;6.556;2023-04-25T03:23:57;5.90;99.90
52743;DHT22;55583;53.012;6.556;2023-04-25T03:26:23;6.30;99.90
52743;DHT22;55583;53.012;6.556;2023-04-25T03:28:48;5.80;99.90
52743;DHT22;55583;53.012;6.556;2023-04-25T03:31:14;5.80;99.90
52743;DHT22;55583;53.012;6.556;2023-04-25T03:33:40;5.80;99.90
52743;DHT22;55583;53.012;6.556;2023-04-25T03:36:06;5.70;99.90
52743;DHT22;55583;53.012;6.556;2023-04-25T03:38:32;5.70;99.90
52743;DHT22;55583;53.012;6.556;2023-04-25T03:40:57;5.70;99.90
52743;DHT22;55583;53.012;6.556;2023-04-25T03:43:23;5.70;99.90
52743;DHT22;55583;53.012;6.556;2023-04-25T03:45:49;5.60;99.90
52743;DHT22;55583;53.012;6.556;2023-04-25T03:48:14;5.60;99.90
52743;DHT22;55583;53.012;6.556;2023-04-25T03:50:40;5.60;99.90
52743;DHT22;55583;53.012;6.556;2023-04-25T03:53:06;5.50;99.90
52743;DHT22;55583;53.012;6.556;2023-04-25T03:55:31;5.50;99.90
52743;DHT22;55583;53.012;6.556;2023-04-25T03:57:58;5.40;99.90
52743;DHT22;55583;53.012;6.556;2023-04-25T04:00:24;5.40;99.90
52743;DHT22;55583;53.012;6.556;2023-04-25T04:02:50;5.40;99.90
52743;DHT22;55583;53.012;6.556;2023-04-25T04:05:15;5.30;99.90
52743;DHT22;55583;53.012;6.556;2023-04-25T04:07:41;5.30;99.90
52743;DHT22;55583;53.012;6.556;2023-04-25T04:10:09;5.30;99.90
52743;DHT22;55583;53.012;6.556;2023-04-25T04:12:35;5.20;99.90
52743;DHT22;55583;53.012;6.556;2023-04-25T04:15:02;5.20;99.90
52743;DHT22;55583;53.012;6.556;2023-04-25T04:17:29;5.50;99.90
52743;DHT22;55583;53.012;6.556;2023-04-25T04:19:55;5.00;99.90
52743;DHT22;55583;53.012;6.556;2023-04-25T04:22:22;4.90;99.90
52743;DHT22;55583;53.012;6.556;2023-04-25T04:24:47;4.80;99.90
52743;DHT22;55583;53.012;6.556;2023-04-25T04:27:13;4.80;99.90
52743;DHT22;55583;53.012;6.556;2023-04-25T04:29:39;4.80;99.90
52743;DHT22;55583;53.012;6.556;2023-04-25T04:32:04;4.80;99.90
52743;DHT22;55583;53.012;6.556;2023-04-25T04:34:30;4.90;99.90
52743;DHT22;55583;53.012;6.556;2023-04-25T04:36:57;4.90;99.90
52743;DHT22;55583;53.012;6.556;2023-04-25T04:39:22;4.90;99.90
52743;DHT22;55583;53.012;6.556;2023-04-25T04:41:48;4.90;99.90
52743;DHT22;55583;53.012;6.556;2023-04-25T04:44:14;5.00;99.90
52743;DHT22;55583;53.012;6.556;2023-04-25T04:46:40;5.00;99.90
52743;DHT22;55583;53.012;6.556;2023-04-25T04:49:13;5.00;99.90
52743;DHT22;55583;53.012;6.556;2023-04-25T04:51:43;5.00;99.90
52743;DHT22;55583;53.012;6.556;2023-04-25T04:54:10;4.90;99.90
52743;DHT22;55583;53.012;6.556;2023-04-25T04:56:35;4.80;99.90
52743;DHT22;55583;53.012;6.556;2023-04-25T04:59:01;4.80;99.90
52743;DHT22;55583;53.012;6.556;2023-04-25T05:01:28;4.80;99.90
52743;DHT22;55583;53.012;6.556;2023-04-25T05:03:55;4.70;99.90
52743;DHT22;55583;53.012;6.556;2023-04-25T05:06:27;4.70;99.90
52743;DHT22;55583;53.012;6.556;2023-04-25T05:08:55;4.70;99.90
52743;DHT22;55583;53.012;6.556;2023-04-25T05:11:21;4.70;99.90
52743;DHT22;55583;53.012;6.556;2023-04-25T05:13:46;4.70;99.90
52743;DHT22;55583;53.012;6.556;2023-04-25T05:16:13;4.70;99.90
52743;DHT22;55583;53.012;6.556;2023-04-25T05:18:39;4.70;99.90
52743;DHT22;55583;53.012;6.556;2023-04-25T05:21:05;4.70;99.90
52743;DHT22;55583;53.012;6.556;2023-04-25T05:23:32;4.80;99.90
52743;DHT22;55583;53.012;6.556;2023-04-25T05:25:58;4.90;99.90
52743;DHT22;55583;53.012;6.556;2023-04-25T05:28:24;5.10;99.90
52743;DHT22;55583;53.012;6.556;2023-04-25T05:30:50;5.30;99.90
52743;DHT22;55583;53.012;6.556;2023-04-25T05:33:15;5.40;99.90
52743;DHT22;55583;53.012;6.556;2023-04-25T05:35:42;5.60;99.90
52743;DHT22;55583;53.012;6.556;2023-04-25T05:38:07;5.60;99.90
52743;DHT22;55583;53.012;6.556;2023-04-25T05:40:33;5.70;99.90
52743;DHT22;55583;53.012;6.556;2023-04-25T05:42:59;5.80;99.90
52743;DHT22;55583;53.012;6.556;2023-04-25T05:45:24;6.80;99.90
52743;DHT22;55583;53.012;6.556;2023-04-25T05:47:50;5.80;99.90
52743;DHT22;55583;53.012;6.556;2023-04-25T05:50:15;5.90;99.90
52743;DHT22;55583;53.012;6.556;2023-04-25T05:52:41;6.10;99.90
52743;DHT22;55583;53.012;6.556;2023-04-25T05:55:07;6.40;99.90
52743;DHT22;55583;53.012;6.556;2023-04-25T05:57:33;6.70;99.90
52743;DHT22;55583;53.012;6.556;2023-04-25T05:59:58;7.00;99.90
52743;DHT22;55583;53.012;6.556;2023-04-25T06:02:24;7.30;99.90
52743;DHT22;55583;53.012;6.556;2023-04-25T06:04:50;7.60;99.90
52743;DHT22;55583;53.012;6.556;2023-04-25T06:07:16;7.90;99.90
52743;DHT22;55583;53.012;6.556;2023-04-25T06:09:43;8.20;99.90
52743;DHT22;55583;53.012;6.556;2023-04-25T06:12:09;8.20;99.90
52743;DHT22;55583;53.012;6.556;2023-04-25T06:14:34;8.30;99.90
52743;DHT22;55583;53.012;6.556;2023-04-25T06:17:00;8.40;99.90
52743;DHT22;55583;53.012;6.556;2023-04-25T06:19:32;8.60;99.90
52743;DHT22;55583;53.012;6.556;2023-04-25T06:21:58;8.90;99.90
52743;DHT22;55583;53.012;6.556;2023-04-25T06:24:24;9.20;99.90
52743;DHT22;55583;53.012;6.556;2023-04-25T06:26:49;9.40;99.90
52743;DHT22;55583;53.012;6.556;2023-04-25T06:29:15;9.70;99.90
52743;DHT22;55583;53.012;6.556;2023-04-25T06:31:41;10.10;99.90
52743;DHT22;55583;53.012;6.556;2023-04-25T06:34:06;10.50;99.90
52743;DHT22;55583;53.012;6.556;2023-04-25T06:36:32;10.40;99.90
52743;DHT22;55583;53.012;6.556;2023-04-25T06:38:57;10.10;99.90
52743;DHT22;55583;53.012;6.556;2023-04-25T06:41:23;10.20;99.90
52743;DHT22;55583;53.012;6.556;2023-04-25T06:43:49;9.70;99.90
52743;DHT22;55583;53.012;6.556;2023-04-25T06:46:14;9.60;99.90
52743;DHT22;55583;53.012;6.556;2023-04-25T06:48:40;9.30;99.90
52743;DHT22;55583;53.012;6.556;2023-04-25T06:51:06;9.10;99.90
52743;DHT22;55583;53.012;6.556;2023-04-25T06:53:34;9.20;99.90
52743;DHT22;55583;53.012;6.556;2023-04-25T06:56:00;9.10;99.90
52743;DHT22;55583;53.012;6.556;2023-04-25T06:58:25;9.10;99.90
52743;DHT22;55583;53.012;6.556;2023-04-25T07:00:51;9.00;99.90
52743;DHT22;55583;53.012;6.556;2023-04-25T07:03:17;8.80;99.90
52743;DHT22;55583;53.012;6.556;2023-04-25T07:05:43;8.80;99.90
52743;DHT22;55583;53.012;6.556;2023-04-25T07:08:08;9.00;99.90
52743;DHT22;55583;53.012;6.556;2023-04-25T07:10:34;9.20;99.90
52743;DHT22;55583;53.012;6.556;2023-04-25T07:13:00;9.30;99.90
52743;DHT22;55583;53.012;6.556;2023-04-25T07:15:26;9.30;99.90
52743;DHT22;55583;53.012;6.556;2023-04-25T07:17:51;9.20;99.90
52743;DHT22;55583;53.012;6.556;2023-04-25T07:20:17;9.10;99.90
52743;DHT22;55583;53.012;6.556;2023-04-25T07:22:42;9.00;99.90
52743;DHT22;55583;53.012;6.556;2023-04-25T07:25:09;8.80;99.90
52743;DHT22;55583;53.012;6.556;2023-04-25T07:27:35;8.70;99.90
52743;DHT22;55583;53.012;6.556;2023-04-25T07:30:00;8.70;99.90
52743;DHT22;55583;53.012;6.556;2023-04-25T07:32:26;8.60;99.90
52743;DHT22;55583;53.012;6.556;2023-04-25T07:34:52;8.40;99.90
52743;DHT22;55583;53.012;6.556;2023-04-25T07:37:17;8.40;99.90
52743;DHT22;55583;53.012;6.556;2023-04-25T07:39:44;8.50;99.90
52743;DHT22;55583;53.012;6.556;2023-04-25T07:42:12;8.90;99.90
52743;DHT22;55583;53.012;6.556;2023-04-25T07:44:38;9.40;99.90
52743;DHT22;55583;53.012;6.556;2023-04-25T07:47:09;9.90;99.90
52743;DHT22;55583;53.012;6.556;2023-04-25T07:49:38;9.70;99.90
52743;DHT22;55583;53.012;6.556;2023-04-25T07:52:04;9.80;98.40
52743;DHT22;55583;53.012;6.556;2023-04-25T07:54:31;9.80;99.90
52743;DHT22;55583;53.012;6.556;2023-04-25T07:56:57;9.70;99.80
52743;DHT22;55583;53.012;6.556;2023-04-25T07:59:23;9.60;98.10
52743;DHT22;55583;53.012;6.556;2023-04-25T08:01:49;9.40;99.10
52743;DHT22;55583;53.012;6.556;2023-04-25T08:04:15;9.10;96.80
52743;DHT22;55583;53.012;6.556;2023-04-25T08:06:41;8.80;98.10
52743;DHT22;55583;53.012;6.556;2023-04-25T08:09:06;8.70;99.90
52743;DHT22;55583;53.012;6.556;2023-04-25T08:11:34;8.70;99.90
52743;DHT22;55583;53.012;6.556;2023-04-25T08:13:59;8.70;97.70
52743;DHT22;55583;53.012;6.556;2023-04-25T08:16:25;8.80;95.70
52743;DHT22;55583;53.012;6.556;2023-04-25T08:18:51;8.90;96.10
52743;DHT22;55583;53.012;6.556;2023-04-25T08:21:16;9.10;94.30
52743;DHT22;55583;53.012;6.556;2023-04-25T08:23:42;9.30;93.20
52743;DHT22;55583;53.012;6.556;2023-04-25T08:26:08;9.60;91.80
52743;DHT22;55583;53.012;6.556;2023-04-25T08:28:33;9.90;92.00
52743;DHT22;55583;53.012;6.556;2023-04-25T08:30:59;10.30;90.70
52743;DHT22;55583;53.012;6.556;2023-04-25T08:33:25;10.60;90.50
52743;DHT22;55583;53.012;6.556;2023-04-25T08:35:51;10.60;89.00
52743;DHT22;55583;53.012;6.556;2023-04-25T08:38:17;10.80;85.90
52743;DHT22;55583;53.012;6.556;2023-04-25T08:40:43;10.80;85.40
52743;DHT22;55583;53.012;6.556;2023-04-25T08:43:12;10.80;82.70
52743;DHT22;55583;53.012;6.556;2023-04-25T08:45:40;10.70;84.40
52743;DHT22;55583;53.012;6.556;2023-04-25T08:48:11;10.50;86.50
52743;DHT22;55583;53.012;6.556;2023-04-25T08:50:54;10.10;89.30
52743;DHT22;55583;53.012;6.556;2023-04-25T08:53:31;9.90;88.30
52743;DHT22;55583;53.012;6.556;2023-04-25T08:55:58;9.70;90.00
52743;DHT22;55583;53.012;6.556;2023-04-25T08:58:24;9.90;93.60
52743;DHT22;55583;53.012;6.556;2023-04-25T09:00:50;9.50;95.00
52743;DHT22;55583;53.012;6.556;2023-04-25T09:03:19;9.70;95.30
52743;DHT22;55583;53.012;6.556;2023-04-25T09:05:45;9.90;94.70
52743;DHT22;55583;53.012;6.556;2023-04-25T09:08:10;9.70;96.10
52743;DHT22;55583;53.012;6.556;2023-04-25T09:10:37;9.30;97.80
52743;DHT22;55583;53.012;6.556;2023-04-25T09:13:08;9.20;99.40
52743;DHT22;55583;53.012;6.556;2023-04-25T09:15:48;8.70;99.90
52743;DHT22;55583;53.012;6.556;2023-04-25T09:18:29;8.80;99.90
52743;DHT22;55583;53.012;6.556;2023-04-25T09:20:56;9.10;99.90
52743;DHT22;55583;53.012;6.556;2023-04-25T09:23:23;9.60;99.90
52743;DHT22;55583;53.012;6.556;2023-04-25T09:25:51;10.10;99.90
52743;DHT22;55583;53.012;6.556;2023-04-25T09:28:23;10.80;99.80
52743;DHT22;55583;53.012;6.556;2023-04-25T09:30:55;11.30;95.50
52743;DHT22;55583;53.012;6.556;2023-04-25T09:33:33;12.20;90.50
52743;DHT22;55583;53.012;6.556;2023-04-25T09:36:08;13.80;73.40
52743;DHT22;55583;53.012;6.556;2023-04-25T09:38:42;15.60;72.40
52743;DHT22;55583;53.012;6.556;2023-04-25T09:41:09;17.20;67.90
52743;DHT22;55583;53.012;6.556;2023-04-25T09:43:36;18.30;64.40
52743;DHT22;55583;53.012;6.556;2023-04-25T09:46:02;19.40;61.30
52743;DHT22;55583;53.012;6.556;2023-04-25T09:48:28;20.10;58.90
52743;DHT22;55583;53.012;6.556;2023-04-25T09:51:06;20.50;55.00
52743;DHT22;55583;53.012;6.556;2023-04-25T09:53:37;20.30;50.40
52743;DHT22;55583;53.012;6.556;2023-04-25T09:56:05;18.20;55.90
52743;DHT22;55583;53.012;6.556;2023-04-25T09:58:35;16.20;62.60
52743;DHT22;55583;53.012;6.556;2023-04-25T10:01:06;14.10;68.10
52743;DHT22;55583;53.012;6.556;2023-04-25T10:03:33;12.30;72.20
52743;DHT22;55583;53.012;6.556;2023-04-25T10:06:00;11.10;79.10
52743;DHT22;55583;53.012;6.556;2023-04-25T10:08:32;10.40;86.70
52743;DHT22;55583;53.012;6.556;2023-04-25T10:11:06;10.10;92.20
52743;DHT22;55583;53.012;6.556;2023-04-25T10:13:33;10.30;93.30
52743;DHT22;55583;53.012;6.556;2023-04-25T10:16:02;10.10;94.90
52743;DHT22;55583;53.012;6.556;2023-04-25T10:18:28;11.10;96.40
52743;DHT22;55583;53.012;6.556;2023-04-25T10:20:56;13.30;91.40
52743;DHT22;55583;53.012;6.556;2023-04-25T10:23:23;15.60;77.40
52743;DHT22;55583;53.012;6.556;2023-04-25T10:25:50;17.40;71.00
52743;DHT22;55583;53.012;6.556;2023-04-25T10:28:16;18.60;67.70
52743;DHT22;55583;53.012;6.556;2023-04-25T10:31:01;19.50;63.10
52743;DHT22;55583;53.012;6.556;2023-04-25T10:33:38;20.50;54.90
52743;DHT22;55583;53.012;6.556;2023-04-25T10:36:14;21.00;54.80
52743;DHT22;55583;53.012;6.556;2023-04-25T10:38:43;21.30;53.60
52743;DHT22;55583;53.012;6.556;2023-04-25T10:41:10;21.40;54.40
52743;DHT22;55583;53.012;6.556;2023-04-25T10:43:37;20.40;54.40
52743;DHT22;55583;53.012;6.556;2023-04-25T10:48:52;18.40;54.60
52743;DHT22;55583;53.012;6.556;2023-04-25T10:51:24;19.00;52.70
52743;DHT22;55583;53.012;6.556;2023-04-25T10:56:21;19.20;52.70
52743;DHT22;55583;53.012;6.556;2023-04-25T10:58:48;17.60;53.80
52743;DHT22;55583;53.012;6.556;2023-04-25T11:01:15;16.30;56.70
52743;DHT22;55583;53.012;6.556;2023-04-25T11:03:42;16.00;57.00
52743;DHT22;55583;53.012;6.556;2023-04-25T11:06:29;16.30;56.70
52743;DHT22;55583;53.012;6.556;2023-04-25T11:08:55;16.90;54.10
52743;DHT22;55583;53.012;6.556;2023-04-25T11:11:20;17.50;56.40
52743;DHT22;55583;53.012;6.556;2023-04-25T11:13:50;18.30;55.80
52743;DHT22;55583;53.012;6.556;2023-04-25T11:16:16;18.70;53.40
52743;DHT22;55583;53.012;6.556;2023-04-25T11:18:43;17.40;54.80
52743;DHT22;55583;53.012;6.556;2023-04-25T11:21:09;15.50;58.50
52743;DHT22;55583;53.012;6.556;2023-04-25T11:23:35;14.40;63.30
52743;DHT22;55583;53.012;6.556;2023-04-25T11:26:02;13.10;66.70
52743;DHT22;55583;53.012;6.556;2023-04-25T11:28:28;11.90;69.80
52743;DHT22;55583;53.012;6.556;2023-04-25T11:30:54;11.20;73.60
52743;DHT22;55583;53.012;6.556;2023-04-25T11:33:24;11.50;77.30
52743;DHT22;55583;53.012;6.556;2023-04-25T11:35:52;11.50;80.00
52743;DHT22;55583;53.012;6.556;2023-04-25T11:38:18;12.10;76.60
52743;DHT22;55583;53.012;6.556;2023-04-25T11:40:43;13.70;72.30
52743;DHT22;55583;53.012;6.556;2023-04-25T11:43:09;14.70;68.30
52743;DHT22;55583;53.012;6.556;2023-04-25T11:45:36;15.30;64.40
52743;DHT22;55583;53.012;6.556;2023-04-25T11:48:02;16.00;65.30
52743;DHT22;55583;53.012;6.556;2023-04-25T11:50:29;17.10;64.00
52743;DHT22;55583;53.012;6.556;2023-04-25T11:52:56;18.10;60.00
52743;DHT22;55583;53.012;6.556;2023-04-25T11:55:22;18.50;57.90
52743;DHT22;55583;53.012;6.556;2023-04-25T11:57:48;17.60;57.20
52743;DHT22;55583;53.012;6.556;2023-04-25T12:00:18;16.50;58.90
52743;DHT22;55583;53.012;6.556;2023-04-25T12:02:53;16.10;60.20
52743;DHT22;55583;53.012;6.556;2023-04-25T12:05:19;16.50;56.80
52743;DHT22;55583;53.012;6.556;2023-04-25T12:07:46;16.40;58.00
52743;DHT22;55583;53.012;6.556;2023-04-25T12:10:13;16.90;57.00
52743;DHT22;55583;53.012;6.556;2023-04-25T12:12:47;17.80;55.50
52743;DHT22;55583;53.012;6.556;2023-04-25T12:15:24;17.90;51.90
52743;DHT22;55583;53.012;6.556;2023-04-25T12:17:51;18.30;51.70
52743;DHT22;55583;53.012;6.556;2023-04-25T12:20:19;19.10;53.80
52743;DHT22;55583;53.012;6.556;2023-04-25T12:22:46;19.80;52.30
52743;DHT22;55583;53.012;6.556;2023-04-25T12:25:13;20.10;51.70
52743;DHT22;55583;53.012;6.556;2023-04-25T12:27:40;19.40;52.00
52743;DHT22;55583;53.012;6.556;2023-04-25T12:30:09;18.10;52.90
52743;DHT22;55583;53.012;6.556;2023-04-25T12:32:36;17.10;55.40
52743;DHT22;55583;53.012;6.556;2023-04-25T12:35:04;15.90;55.60
52743;DHT22;55583;53.012;6.556;2023-04-25T12:37:30;15.00;56.40
52743;DHT22;55583;53.012;6.556;2023-04-25T12:39:56;14.30;56.50
52743;DHT22;55583;53.012;6.556;2023-04-25T12:42:21;14.10;58.10
52743;DHT22;55583;53.012;6.556;2023-04-25T12:44:47;14.60;58.80
52743;DHT22;55583;53.012;6.556;2023-04-25T12:47:12;15.40;57.70
52743;DHT22;55583;53.012;6.556;2023-04-25T12:49:39;16.20;55.40
52743;DHT22;55583;53.012;6.556;2023-04-25T12:52:04;16.60;57.20
52743;DHT22;55583;53.012;6.556;2023-04-25T12:54:30;16.70;57.20
52743;DHT22;55583;53.012;6.556;2023-04-25T12:56:56;16.40;57.00
52743;DHT22;55583;53.012;6.556;2023-04-25T12:59:22;16.10;57.30
52743;DHT22;55583;53.012;6.556;2023-04-25T13:01:48;15.90;58.00
52743;DHT22;55583;53.012;6.556;2023-04-25T13:04:14;15.90;57.40
52743;DHT22;55583;53.012;6.556;2023-04-25T13:06:40;16.30;57.30
52743;DHT22;55583;53.012;6.556;2023-04-25T13:09:05;16.80;58.00
52743;DHT22;55583;53.012;6.556;2023-04-25T13:11:32;17.50;56.70
52743;DHT22;55583;53.012;6.556;2023-04-25T13:13:57;18.00;57.00
52743;DHT22;55583;53.012;6.556;2023-04-25T13:16:23;18.20;56.10
52743;DHT22;55583;53.012;6.556;2023-04-25T13:18:49;18.40;56.20
52743;DHT22;55583;53.012;6.556;2023-04-25T13:21:14;18.10;55.60
52743;DHT22;55583;53.012;6.556;2023-04-25T13:23:40;17.30;54.00
52743;DHT22;55583;53.012;6.556;2023-04-25T13:26:08;16.20;57.20
52743;DHT22;55583;53.012;6.556;2023-04-25T13:28:33;14.80;58.80
52743;DHT22;55583;53.012;6.556;2023-04-25T13:30:59;13.60;60.10
52743;DHT22;55583;53.012;6.556;2023-04-25T13:33:25;12.80;62.50
52743;DHT22;55583;53.012;6.556;2023-04-25T13:35:51;12.80;64.30
52743;DHT22;55583;53.012;6.556;2023-04-25T13:38:22;12.50;64.80
52743;DHT22;55583;53.012;6.556;2023-04-25T13:40:48;12.60;64.40
52743;DHT22;55583;53.012;6.556;2023-04-25T13:43:14;12.90;64.40
52743;DHT22;55583;53.012;6.556;2023-04-25T13:45:39;13.50;62.90
52743;DHT22;55583;53.012;6.556;2023-04-25T13:48:05;14.30;64.30
52743;DHT22;55583;53.012;6.556;2023-04-25T13:50:31;14.90;63.00
52743;DHT22;55583;53.012;6.556;2023-04-25T13:52:57;15.10;61.70
52743;DHT22;55583;53.012;6.556;2023-04-25T13:55:22;14.80;61.60
52743;DHT22;55583;53.012;6.556;2023-04-25T13:57:48;14.20;61.60
52743;DHT22;55583;53.012;6.556;2023-04-25T14:00:14;13.50;62.80
52743;DHT22;55583;53.012;6.556;2023-04-25T14:02:40;12.80;64.60
52743;DHT22;55583;53.012;6.556;2023-04-25T14:05:06;12.30;66.80
52743;DHT22;55583;53.012;6.556;2023-04-25T14:07:33;11.30;70.20
52743;DHT22;55583;53.012;6.556;2023-04-25T14:10:00;10.80;73.30
52743;DHT22;55583;53.012;6.556;2023-04-25T14:12:26;10.40;76.40
52743;DHT22;55583;53.012;6.556;2023-04-25T14:14:52;10.30;78.40
52743;DHT22;55583;53.012;6.556;2023-04-25T14:17:19;10.60;79.90
52743;DHT22;55583;53.012;6.556;2023-04-25T14:19:44;11.10;80.50
52743;DHT22;55583;53.012;6.556;2023-04-25T14:22:13;11.50;79.10
52743;DHT22;55583;53.012;6.556;2023-04-25T14:24:39;11.80;76.70
52743;DHT22;55583;53.012;6.556;2023-04-25T14:27:05;11.90;70.50
52743;DHT22;55583;53.012;6.556;2023-04-25T14:29:31;11.90;69.80
52743;DHT22;55583;53.012;6.556;2023-04-25T14:31:57;12.30;71.50
52743;DHT22;55583;53.012;6.556;2023-04-25T14:34:27;13.10;71.30
52743;DHT22;55583;53.012;6.556;2023-04-25T14:36:52;13.70;70.90
52743;DHT22;55583;53.012;6.556;2023-04-25T14:39:18;14.30;69.80
52743;DHT22;55583;53.012;6.556;2023-04-25T14:41:44;14.60;67.70
52743;DHT22;55583;53.012;6.556;2023-04-25T14:44:10;14.50;66.20
52743;DHT22;55583;53.012;6.556;2023-04-25T14:46:36;14.30;65.20
52743;DHT22;55583;53.012;6.556;2023-04-25T14:49:03;13.70;66.70
52743;DHT22;55583;53.012;6.556;2023-04-25T14:51:28;13.10;67.20
52743;DHT22;55583;53.012;6.556;2023-04-25T14:53:55;13.20;69.40
52743;DHT22;55583;53.012;6.556;2023-04-25T14:56:20;13.70;68.10
52743;DHT22;55583;53.012;6.556;2023-04-25T14:58:46;14.20;67.70
52743;DHT22;55583;53.012;6.556;2023-04-25T15:01:12;14.30;65.40
52743;DHT22;55583;53.012;6.556;2023-04-25T15:03:39;13.70;62.00
52743;DHT22;55583;53.012;6.556;2023-04-25T15:06:05;13.30;61.80
52743;DHT22;55583;53.012;6.556;2023-04-25T15:08:32;13.00;61.90
52743;DHT22;55583;53.012;6.556;2023-04-25T15:10:58;13.10;61.60
52743;DHT22;55583;53.012;6.556;2023-04-25T15:13:24;13.30;61.90
52743;DHT22;55583;53.012;6.556;2023-04-25T15:15:50;13.50;61.80
52743;DHT22;55583;53.012;6.556;2023-04-25T15:18:19;13.60;61.90
52743;DHT22;55583;53.012;6.556;2023-04-25T15:20:47;13.30;62.20
52743;DHT22;55583;53.012;6.556;2023-04-25T15:23:12;13.50;63.50
52743;DHT22;55583;53.012;6.556;2023-04-25T15:25:38;13.50;63.40
52743;DHT22;55583;53.012;6.556;2023-04-25T15:28:04;13.00;63.70
52743;DHT22;55583;53.012;6.556;2023-04-25T15:30:30;12.60;64.20
52743;DHT22;55583;53.012;6.556;2023-04-25T15:32:55;12.30;63.90
52743;DHT22;55583;53.012;6.556;2023-04-25T15:35:21;12.10;64.40
52743;DHT22;55583;53.012;6.556;2023-04-25T15:37:47;11.80;65.10
52743;DHT22;55583;53.012;6.556;2023-04-25T15:40:16;11.90;65.60
52743;DHT22;55583;53.012;6.556;2023-04-25T15:42:47;11.60;66.40